Wetterdaten: Woche 20.02.17 - 26.02.17 (KW8)
Datum Zeit Temp. A. Feuchte A. Luftdruck Regen Wind Richtung Sonnenschein ET UV Solar Taupunkt Windchill Windben Empfang
20.02.2017 00:00 0,6 C 97 % 1023,4 hPa 0,0 l/m 1,8 km/h (1 Bft) SW 0,00 h 0,000 mm 0,0 UV-I 0 W/m 0,2 C 0,6 C 3,4 km/h (1 Bft) 97,00 %
20.02.2017 01:00 0,5 C 97 % 1023,5 hPa 0,0 l/m 3,0 km/h (1 Bft) W 0,00 h 0,000 mm 0,0 UV-I 0 W/m 0,1 C 0,5 C 4,7 km/h (1 Bft) 96,67 %
20.02.2017 02:00 0,7 C 97 % 1023,4 hPa 0,2 l/m 4,5 km/h (1 Bft) SW 0,00 h 0,000 mm 0,0 UV-I 0 W/m 0,3 C 0,7 C 6,6 km/h (2 Bft) 97,35 %
20.02.2017 03:00 1,4 C 97 % 1022,9 hPa 0,0 l/m 7,5 km/h (2 Bft) W-SW 0,00 h 0,000 mm 0,0 UV-I 0 W/m 1,0 C 0,3 C 11,4 km/h (2 Bft) 96,03 %
20.02.2017 04:00 1,8 C 96 % 1022,8 hPa 0,0 l/m 6,5 km/h (2 Bft) W-SW 0,00 h 0,000 mm 0,0 UV-I 0 W/m 1,3 C 1,2 C 9,8 km/h (2 Bft) 97,99 %
20.02.2017 05:00 2,5 C 95 % 1022,9 hPa 0,0 l/m 9,3 km/h (2 Bft) SW 0,00 h 0,000 mm 0,0 UV-I 0 W/m 1,8 C -0,0 C 13,8 km/h (3 Bft) 94,88 %
20.02.2017 06:00 2,8 C 94 % 1022,9 hPa 0,0 l/m 10,5 km/h (2 Bft) SW 0,00 h 0,000 mm 0,0 UV-I 0 W/m 1,9 C -0,6 C 16,0 km/h (3 Bft) 96,86 %
20.02.2017 07:00 3,2 C 93 % 1023,0 hPa 0,0 l/m 12,5 km/h (3 Bft) SW 0,00 h 0,000 mm 0,0 UV-I 10 W/m 2,2 C -1,6 C 19,1 km/h (3 Bft) 93,48 %
20.02.2017 08:00 3,4 C 94 % 1023,2 hPa 0,0 l/m 12,1 km/h (2 Bft) W-SW 0,00 h 0,000 mm 0,0 UV-I 47 W/m 2,5 C -1,1 C 18,1 km/h (3 Bft) 93,69 %
20.02.2017 09:00 4,0 C 93 % 1023,4 hPa 0,0 l/m 14,1 km/h (3 Bft) SW 0,00 h 0,025 mm 0,0 UV-I 71 W/m 2,9 C -1,6 C 21,3 km/h (4 Bft) 91,51 %
20.02.2017 10:00 4,4 C 91 % 1023,5 hPa 0,0 l/m 12,3 km/h (3 Bft) SW 0,00 h 0,026 mm 0,5 UV-I 94 W/m 3,1 C -0,0 C 18,4 km/h (3 Bft) 93,73 %
20.02.2017 11:00 5,1 C 88 % 1023,3 hPa 0,0 l/m 14,4 km/h (3 Bft) SW 0,00 h 0,051 mm 0,6 UV-I 146 W/m 3,4 C -0,4 C 22,8 km/h (4 Bft) 94,35 %
20.02.2017 12:00 6,3 C 85 % 1022,2 hPa 0,0 l/m 13,6 km/h (3 Bft) SW 0,30 h 0,076 mm 1,0 UV-I 308 W/m 4,0 C 1,4 C 21,9 km/h (4 Bft) 94,81 %
20.02.2017 13:00 7,6 C 78 % 1021,5 hPa 0,0 l/m 15,4 km/h (3 Bft) W-SW 0,27 h 0,127 mm 0,9 UV-I 239 W/m 4,1 C 2,2 C 23,7 km/h (4 Bft) 93,26 %
20.02.2017 14:00 8,0 C 75 % 1020,8 hPa 0,0 l/m 15,4 km/h (3 Bft) W-SW 0,77 h 0,127 mm 0,9 UV-I 326 W/m 3,9 C 2,7 C 23,4 km/h (4 Bft) 97,30 %
20.02.2017 15:00 8,8 C 71 % 1020,0 hPa 0,0 l/m 14,8 km/h (3 Bft) W-SW 0,90 h 0,178 mm 0,6 UV-I 264 W/m 3,9 C 3,8 C 23,0 km/h (4 Bft) 96,75 %
20.02.2017 16:00 8,2 C 73 % 1019,4 hPa 0,0 l/m 11,2 km/h (2 Bft) W-SW 0,00 h 0,152 mm 0,0 UV-I 40 W/m 3,6 C 5,0 C 17,2 km/h (3 Bft) 98,00 %
20.02.2017 17:00 7,2 C 77 % 1019,2 hPa 0,0 l/m 8,3 km/h (2 Bft) SW 0,20 h 0,051 mm 0,0 UV-I 16 W/m 3,4 C 5,8 C 12,5 km/h (3 Bft) 96,07 %
20.02.2017 18:00 6,7 C 77 % 1019,0 hPa 0,0 l/m 11,7 km/h (2 Bft) SW 0,00 h 0,025 mm 0,0 UV-I 0 W/m 3,1 C 3,0 C 17,8 km/h (3 Bft) 98,12 %
20.02.2017 19:00 6,7 C 75 % 1018,7 hPa 0,0 l/m 13,9 km/h (3 Bft) W-SW 0,00 h 0,026 mm 0,0 UV-I 0 W/m 2,6 C 1,8 C 20,6 km/h (4 Bft) 96,87 %
20.02.2017 20:00 6,5 C 75 % 1018,4 hPa 0,0 l/m 15,2 km/h (3 Bft) W-SW 0,00 h 0,025 mm 0,0 UV-I 0 W/m 2,4 C 0,9 C 22,8 km/h (4 Bft) 97,93 %
20.02.2017 21:00 6,4 C 75 % 1018,0 hPa 0,0 l/m 11,2 km/h (2 Bft) SW 0,00 h 0,025 mm 0,0 UV-I 0 W/m 2,4 C 3,0 C 16,8 km/h (3 Bft) 97,32 %
20.02.2017 22:00 6,5 C 75 % 1017,9 hPa 0,0 l/m 12,6 km/h (3 Bft) W-SW 0,00 h 0,026 mm 0,0 UV-I 0 W/m 2,3 C 2,2 C 18,4 km/h (3 Bft) 97,80 %
20.02.2017 23:00 6,4 C 81 % 1017,6 hPa 0,2 l/m 17,3 km/h (3 Bft) SW 0,00 h 0,025 mm 0,0 UV-I 0 W/m 3,3 C -0,3 C 25,3 km/h (4 Bft) 97,61 %
21.02.2017 00:00 6,0 C 88 % 1017,4 hPa 0,8 l/m 19,1 km/h (3 Bft) SW 0,00 h 0,000 mm 0,0 UV-I 0 W/m 4,1 C -1,5 C 28,9 km/h (5 Bft) 97,13 %
21.02.2017 01:00 6,2 C 90 % 1016,8 hPa 0,4 l/m 23,6 km/h (4 Bft) SW 0,00 h 0,025 mm 0,0 UV-I 0 W/m 4,7 C -2,8 C 34,5 km/h (5 Bft) 98,41 %
21.02.2017 02:00 6,3 C 91 % 1016,1 hPa 0,0 l/m 24,3 km/h (4 Bft) W-SW 0,00 h 0,026 mm 0,0 UV-I 0 W/m 5,0 C -2,9 C 36,2 km/h (5 Bft) 95,48 %
21.02.2017 03:00 5,9 C 93 % 1015,7 hPa 0,2 l/m 20,2 km/h (4 Bft) W-SW 0,00 h 0,025 mm 0,0 UV-I 0 W/m 4,8 C -2,0 C 30,5 km/h (5 Bft) 96,24 %
21.02.2017 04:00 5,9 C 94 % 1015,1 hPa 0,0 l/m 20,3 km/h (4 Bft) SW 0,00 h 0,026 mm 0,0 UV-I 0 W/m 5,0 C -2,0 C 30,3 km/h (5 Bft) 94,32 %
21.02.2017 05:00 6,7 C 92 % 1014,7 hPa 0,0 l/m 21,8 km/h (4 Bft) W-SW 0,00 h 0,025 mm 0,0 UV-I 0 W/m 5,5 C -1,6 C 32,1 km/h (5 Bft) 98,00 %
21.02.2017 06:00 7,2 C 91 % 1014,1 hPa 0,4 l/m 19,8 km/h (3 Bft) W-SW 0,00 h 0,025 mm 0,0 UV-I 0 W/m 5,8 C -0,3 C 29,4 km/h (5 Bft) 95,58 %
21.02.2017 07:00 7,5 C 90 % 1014,0 hPa 0,4 l/m 19,9 km/h (4 Bft) W-SW 0,00 h 0,026 mm 0,0 UV-I 11 W/m 6,0 C 0,1 C 29,0 km/h (5 Bft) 98,32 %
21.02.2017 08:00 8,5 C 86 % 1013,6 hPa 0,0 l/m 20,0 km/h (4 Bft) W-SW 0,00 h 0,025 mm 0,0 UV-I 48 W/m 6,3 C 1,4 C 30,4 km/h (5 Bft) 98,26 %
21.02.2017 09:00 8,5 C 89 % 1013,6 hPa 1,0 l/m 17,0 km/h (3 Bft) W-SW 0,00 h 0,051 mm 0,0 UV-I 41 W/m 6,7 C 2,5 C 25,1 km/h (4 Bft) 98,50 %
21.02.2017 10:00 8,3 C 93 % 1013,7 hPa 1,0 l/m 13,9 km/h (3 Bft) W-SW 0,00 h 0,025 mm 0,0 UV-I 65 W/m 7,3 C 3,6 C 20,2 km/h (4 Bft) 98,36 %
21.02.2017 11:00 8,9 C 94 % 1013,6 hPa 0,8 l/m 15,2 km/h (3 Bft) W-SW 0,00 h 0,026 mm 0,4 UV-I 105 W/m 8,0 C 3,7 C 22,4 km/h (4 Bft) 98,33 %
21.02.2017 12:00 9,1 C 93 % 1013,2 hPa 1,0 l/m 17,4 km/h (3 Bft) W-SW 0,00 h 0,051 mm 0,0 UV-I 75 W/m 8,1 C 3,1 C 26,3 km/h (4 Bft) 98,75 %
21.02.2017 13:00 9,1 C 93 % 1013,1 hPa 0,4 l/m 17,7 km/h (3 Bft) W-SW 0,00 h 0,050 mm 0,0 UV-I 65 W/m 8,0 C 3,0 C 27,0 km/h (4 Bft) 97,98 %
21.02.2017 14:00 9,3 C 91 % 1013,3 hPa 0,0 l/m 17,4 km/h (3 Bft) W-SW 0,00 h 0,051 mm 0,0 UV-I 50 W/m 7,9 C 3,4 C 26,2 km/h (4 Bft) 99,21 %
21.02.2017 15:00 9,1 C 92 % 1013,5 hPa 0,0 l/m 14,6 km/h (3 Bft) SW 0,00 h 0,026 mm 0,0 UV-I 27 W/m 7,9 C 4,3 C 22,2 km/h (4 Bft) 98,54 %
21.02.2017 16:00 9,0 C 93 % 1013,7 hPa 0,6 l/m 15,5 km/h (3 Bft) W-SW 0,00 h 0,025 mm 0,0 UV-I 22 W/m 7,9 C 3,8 C 23,5 km/h (4 Bft) 99,40 %
21.02.2017 17:00 8,3 C 95 % 1014,4 hPa 1,6 l/m 14,3 km/h (3 Bft) W-SW 0,00 h 0,025 mm 0,0 UV-I 8 W/m 7,4 C 3,4 C 24,7 km/h (4 Bft) 97,73 %
21.02.2017 18:00 7,5 C 94 % 1015,1 hPa 0,2 l/m 16,5 km/h (3 Bft) W 0,00 h 0,000 mm 0,0 UV-I 0 W/m 6,6 C 1,5 C 24,2 km/h (4 Bft) 99,40 %
21.02.2017 19:00 7,5 C 94 % 1015,4 hPa 0,0 l/m 13,3 km/h (3 Bft) W-SW 0,00 h 0,000 mm 0,0 UV-I 0 W/m 6,5 C 3,0 C 19,2 km/h (3 Bft) 98,16 %
21.02.2017 20:00 7,7 C 94 % 1015,8 hPa 0,4 l/m 10,9 km/h (2 Bft) W-SW 0,00 h 0,000 mm 0,0 UV-I 0 W/m 6,8 C 4,5 C 16,3 km/h (3 Bft) 98,80 %
21.02.2017 21:00 7,7 C 96 % 1016,0 hPa 2,6 l/m 9,3 km/h (2 Bft) W-SW 0,00 h 0,000 mm 0,0 UV-I 0 W/m 7,1 C 5,3 C 14,5 km/h (3 Bft) 96,23 %
21.02.2017 22:00 7,7 C 97 % 1015,8 hPa 2,8 l/m 11,3 km/h (2 Bft) W-SW 0,00 h 0,000 mm 0,0 UV-I 0 W/m 7,3 C 4,4 C 17,6 km/h (3 Bft) 98,45 %
21.02.2017 23:00 7,8 C 97 % 1015,4 hPa 0,4 l/m 7,7 km/h (2 Bft) W-SW 0,00 h 0,000 mm 0,0 UV-I 0 W/m 7,2 C 6,5 C 12,3 km/h (3 Bft) 97,67 %
22.02.2017 00:00 7,9 C 97 % 1015,3 hPa 0,4 l/m 6,3 km/h (2 Bft) W-SW 0,00 h 0,000 mm 0,0 UV-I 0 W/m 7,5 C 7,1 C 10,3 km/h (2 Bft) 99,35 %
22.02.2017 01:00 7,7 C 97 % 1015,2 hPa 0,4 l/m 7,7 km/h (2 Bft) W 0,00 h 0,000 mm 0,0 UV-I 0 W/m 7,3 C 6,5 C 13,0 km/h (3 Bft) 98,27 %
22.02.2017 02:00 7,3 C 97 % 1014,8 hPa 0,8 l/m 6,5 km/h (2 Bft) W-SW 0,00 h 0,000 mm 0,0 UV-I 0 W/m 6,9 C 6,8 C 10,7 km/h (2 Bft) 98,60 %
22.02.2017 03:00 7,6 C 98 % 1014,3 hPa 1,0 l/m 6,1 km/h (2 Bft) W-SW 0,00 h 0,000 mm 0,0 UV-I 0 W/m 7,3 C 7,4 C 10,0 km/h (2 Bft) 98,31 %
22.02.2017 04:00 8,3 C 97 % 1013,8 hPa 0,0 l/m 13,6 km/h (3 Bft) W-SW 0,00 h 0,000 mm 0,0 UV-I 0 W/m 7,9 C 3,8 C 20,4 km/h (4 Bft) 99,06 %
22.02.2017 05:00 8,6 C 95 % 1013,2 hPa 0,0 l/m 15,5 km/h (3 Bft) SW 0,00 h 0,000 mm 0,0 UV-I 0 W/m 7,8 C 3,2 C 23,5 km/h (4 Bft) 98,02 %
22.02.2017 06:00 8,7 C 92 % 1012,6 hPa 0,0 l/m 16,4 km/h (3 Bft) SW 0,00 h 0,000 mm 0,0 UV-I 4 W/m 7,6 C 3,1 C 24,6 km/h (4 Bft) 98,35 %
22.02.2017 07:00 8,8 C 91 % 1012,6 hPa 0,0 l/m 15,8 km/h (3 Bft) SW 0,00 h 0,025 mm 0,0 UV-I 15 W/m 7,5 C 3,5 C 23,5 km/h (4 Bft) 97,42 %
22.02.2017 08:00 9,1 C 90 % 1012,7 hPa 0,2 l/m 16,7 km/h (3 Bft) SW 0,00 h 0,026 mm 0,0 UV-I 60 W/m 7,6 C 3,5 C 25,0 km/h (4 Bft) 95,92 %
22.02.2017 09:00 10,0 C 86 % 1012,7 hPa 0,0 l/m 18,9 km/h (3 Bft) SW 0,00 h 0,051 mm 0,4 UV-I 82 W/m 7,6 C 3,6 C 28,5 km/h (4 Bft) 96,91 %
22.02.2017 10:00 10,9 C 83 % 1012,3 hPa 0,0 l/m 16,4 km/h (3 Bft) W-SW 0,00 h 0,076 mm 0,6 UV-I 173 W/m 8,0 C 5,7 C 25,3 km/h (4 Bft) 95,07 %
22.02.2017 11:00 12,0 C 78 % 1011,7 hPa 0,0 l/m 18,7 km/h (3 Bft) W-SW 0,53 h 0,101 mm 1,0 UV-I 287 W/m 8,3 C 6,4 C 29,0 km/h (5 Bft) 98,50 %
22.02.2017 12:00 12,7 C 72 % 1011,1 hPa 0,0 l/m 21,6 km/h (4 Bft) W-SW 0,03 h 0,178 mm 0,8 UV-I 210 W/m 7,7 C 6,4 C 34,3 km/h (5 Bft) 97,30 %
22.02.2017 13:00 12,7 C 68 % 1010,7 hPa 0,0 l/m 22,0 km/h (4 Bft) W-SW 0,10 h 0,178 mm 0,8 UV-I 143 W/m 7,0 C 6,3 C 34,2 km/h (5 Bft) 98,45 %
22.02.2017 14:00 11,5 C 74 % 1010,6 hPa 0,0 l/m 20,2 km/h (4 Bft) W-SW 0,00 h 0,152 mm 0,4 UV-I 104 W/m 6,9 C 5,3 C 31,3 km/h (5 Bft) 96,76 %
22.02.2017 15:00 11,3 C 73 % 1010,3 hPa 0,0 l/m 14,7 km/h (3 Bft) W 0,00 h 0,102 mm 0,0 UV-I 59 W/m 6,6 C 6,9 C 23,8 km/h (4 Bft) 98,21 %
22.02.2017 16:00 10,7 C 77 % 1010,0 hPa 0,0 l/m 10,1 km/h (2 Bft) SW 0,00 h 0,076 mm 0,0 UV-I 24 W/m 6,7 C 8,4 C 15,4 km/h (3 Bft) 94,92 %
22.02.2017 17:00 10,2 C 80 % 1009,6 hPa 0,0 l/m 9,5 km/h (2 Bft) W-SW 0,00 h 0,026 mm 0,0 UV-I 11 W/m 6,8 C 8,2 C 14,3 km/h (3 Bft) 94,35 %
22.02.2017 18:00 10,0 C 80 % 1009,7 hPa 0,0 l/m 8,6 km/h (2 Bft) W-SW 0,00 h 0,025 mm 0,0 UV-I 0 W/m 6,6 C 8,5 C 13,9 km/h (3 Bft) 93,41 %
22.02.2017 19:00 10,0 C 79 % 1009,4 hPa 0,0 l/m 12,5 km/h (3 Bft) W-SW 0,00 h 0,025 mm 0,0 UV-I 0 W/m 6,5 C 6,3 C 18,6 km/h (3 Bft) 95,66 %
22.02.2017 20:00 10,1 C 76 % 1009,4 hPa 0,0 l/m 9,9 km/h (2 Bft) W-SW 0,00 h 0,026 mm 0,0 UV-I 0 W/m 6,1 C 7,9 C 15,7 km/h (3 Bft) 93,45 %
22.02.2017 21:00 10,2 C 75 % 1009,3 hPa 0,0 l/m 11,7 km/h (2 Bft) W 0,00 h 0,025 mm 0,0 UV-I 0 W/m 5,9 C 7,1 C 18,0 km/h (3 Bft) 96,22 %
22.02.2017 22:00 10,6 C 72 % 1009,1 hPa 0,0 l/m 18,7 km/h (3 Bft) W-SW 0,00 h 0,026 mm 0,0 UV-I 0 W/m 5,8 C 4,5 C 28,2 km/h (4 Bft) 94,48 %
22.02.2017 23:00 10,6 C 72 % 1008,8 hPa 0,0 l/m 20,8 km/h (4 Bft) W-SW 0,00 h 0,050 mm 0,0 UV-I 0 W/m 5,8 C 3,8 C 30,8 km/h (5 Bft) 96,44 %
23.02.2017 00:00 10,5 C 74 % 1008,7 hPa 0,0 l/m 16,6 km/h (3 Bft) W-SW 0,00 h 0,000 mm 0,0 UV-I 0 W/m 5,9 C 5,2 C 24,6 km/h (4 Bft) 95,31 %
23.02.2017 01:00 10,4 C 75 % 1008,7 hPa 0,0 l/m 14,0 km/h (3 Bft) W-SW 0,00 h 0,051 mm 0,0 UV-I 0 W/m 6,1 C 6,1 C 21,7 km/h (4 Bft) 96,29 %
23.02.2017 02:00 10,7 C 72 % 1008,4 hPa 0,0 l/m 17,4 km/h (3 Bft) W-SW 0,00 h 0,051 mm 0,0 UV-I 0 W/m 5,9 C 5,1 C 26,5 km/h (4 Bft) 96,99 %
23.02.2017 03:00 10,7 C 71 % 1008,0 hPa 0,0 l/m 16,7 km/h (3 Bft) W 0,00 h 0,050 mm 0,0 UV-I 0 W/m 5,7 C 5,4 C 25,4 km/h (4 Bft) 98,40 %
23.02.2017 04:00 10,7 C 70 % 1007,9 hPa 0,0 l/m 14,6 km/h (3 Bft) W-SW 0,00 h 0,051 mm 0,0 UV-I 0 W/m 5,4 C 6,1 C 21,2 km/h (4 Bft) 97,24 %
23.02.2017 05:00 10,2 C 73 % 1007,8 hPa 0,0 l/m 10,9 km/h (2 Bft) SW 0,00 h 0,051 mm 0,0 UV-I 0 W/m 5,5 C 7,4 C 16,5 km/h (3 Bft) 98,14 %
23.02.2017 06:00 10,2 C 71 % 1007,8 hPa 0,0 l/m 14,7 km/h (3 Bft) W-SW 0,00 h 0,025 mm 0,0 UV-I 5 W/m 5,2 C 5,6 C 22,1 km/h (4 Bft) 96,71 %
23.02.2017 07:00 10,3 C 68 % 1007,9 hPa 0,0 l/m 16,8 km/h (3 Bft) W-SW 0,00 h 0,051 mm 0,0 UV-I 31 W/m 4,6 C 4,8 C 25,6 km/h (4 Bft) 97,06 %
23.02.2017 08:00 10,4 C 66 % 1008,0 hPa 0,0 l/m 16,1 km/h (3 Bft) W-SW 0,23 h 0,076 mm 0,0 UV-I 101 W/m 4,3 C 5,2 C 25,0 km/h (4 Bft) 95,96 %
23.02.2017 09:00 10,6 C 66 % 1007,6 hPa 0,0 l/m 11,8 km/h (2 Bft) W-SW 0,00 h 0,102 mm 0,5 UV-I 130 W/m 4,4 C 7,5 C 17,9 km/h (3 Bft) 96,89 %
23.02.2017 10:00 11,7 C 61 % 1006,9 hPa 0,0 l/m 6,8 km/h (2 Bft) W-SW 0,87 h 0,102 mm 1,1 UV-I 394 W/m 4,4 C 11,1 C 12,2 km/h (2 Bft) 96,47 %
23.02.2017 11:00 13,3 C 56 % 1006,0 hPa 0,0 l/m 4,2 km/h (1 Bft) W 1,00 h 0,228 mm 1,5 UV-I 497 W/m 4,6 C 13,2 C 8,7 km/h (2 Bft) 96,59 %
23.02.2017 12:00 14,1 C 57 % 1004,8 hPa 0,0 l/m 4,2 km/h (1 Bft) O-NO 1,00 h 0,280 mm 1,7 UV-I 531 W/m 5,6 C 14,0 C 7,9 km/h (2 Bft) 97,37 %
23.02.2017 13:00 15,2 C 54 % 1003,3 hPa 0,0 l/m 4,0 km/h (1 Bft) NO 1,00 h 0,304 mm 1,5 UV-I 508 W/m 5,9 C 15,1 C 6,7 km/h (2 Bft) 97,20 %
23.02.2017 14:00 16,1 C 51 % 1001,6 hPa 0,0 l/m 4,3 km/h (1 Bft) O-NO 1,00 h 0,305 mm 1,0 UV-I 359 W/m 5,8 C 16,1 C 6,7 km/h (2 Bft) 96,09 %
23.02.2017 15:00 16,3 C 56 % 1000,3 hPa 0,0 l/m 6,2 km/h (2 Bft) NO 0,83 h 0,229 mm 0,6 UV-I 248 W/m 7,5 C 15,8 C 9,6 km/h (2 Bft) 97,84 %
23.02.2017 16:00 14,9 C 61 % 998,9 hPa 0,0 l/m 5,2 km/h (1 Bft) NO 0,10 h 0,178 mm 0,0 UV-I 69 W/m 7,6 C 14,9 C 7,0 km/h (2 Bft) 95,07 %
23.02.2017 17:00 13,0 C 68 % 998,0 hPa 0,0 l/m 2,0 km/h (1 Bft) O-NO 0,10 h 0,076 mm 0,0 UV-I 16 W/m 7,1 C 13,0 C 3,8 km/h (1 Bft) 95,20 %
23.02.2017 18:00 10,4 C 78 % 997,6 hPa 0,0 l/m 1,9 km/h (1 Bft) O 0,00 h 0,025 mm 0,0 UV-I 0 W/m 6,7 C 10,4 C 3,9 km/h (1 Bft) 94,16 %
23.02.2017 19:00 9,7 C 79 % 997,6 hPa 0,0 l/m 3,8 km/h (1 Bft) S-SW 0,00 h 0,000 mm 0,0 UV-I 0 W/m 6,1 C 9,7 C 6,3 km/h (2 Bft) 95,17 %
23.02.2017 20:00 10,7 C 65 % 997,5 hPa 0,0 l/m 8,5 km/h (2 Bft) S 0,00 h 0,026 mm 0,0 UV-I 0 W/m 4,3 C 9,3 C 13,6 km/h (3 Bft) 95,04 %
23.02.2017 21:00 12,9 C 45 % 997,6 hPa 0,0 l/m 17,5 km/h (3 Bft) W-SW 0,00 h 0,050 mm 0,0 UV-I 0 W/m 1,4 C 7,9 C 26,6 km/h (4 Bft) 95,91 %
23.02.2017 22:00 12,8 C 46 % 997,7 hPa 0,0 l/m 14,9 km/h (3 Bft) SW 0,00 h 0,127 mm 0,0 UV-I 0 W/m 1,5 C 8,6 C 22,2 km/h (4 Bft) 94,41 %
23.02.2017 23:00 13,0 C 45 % 997,7 hPa 0,0 l/m 15,0 km/h (3 Bft) SW 0,00 h 0,102 mm 0,0 UV-I 0 W/m 1,2 C 8,8 C 21,4 km/h (4 Bft) 97,29 %
24.02.2017 00:00 12,6 C 46 % 997,8 hPa 0,0 l/m 11,1 km/h (2 Bft) W-SW 0,00 h 0,000 mm 0,0 UV-I 0 W/m 1,4 C 9,9 C 15,9 km/h (3 Bft) 97,71 %
24.02.2017 01:00 12,3 C 49 % 998,1 hPa 0,0 l/m 17,4 km/h (3 Bft) W-SW 0,00 h 0,076 mm 0,0 UV-I 0 W/m 2,0 C 7,1 C 23,6 km/h (4 Bft) 97,29 %
24.02.2017 02:00 11,6 C 55 % 998,3 hPa 0,0 l/m 15,6 km/h (3 Bft) SW 0,00 h 0,102 mm 0,0 UV-I 0 W/m 2,8 C 7,4 C 22,6 km/h (4 Bft) 98,21 %
24.02.2017 03:00 11,2 C 63 % 999,1 hPa 0,0 l/m 18,8 km/h (3 Bft) W 0,00 h 0,076 mm 0,0 UV-I 0 W/m 4,2 C 5,5 C 29,8 km/h (5 Bft) 96,97 %
24.02.2017 04:00 7,4 C 77 % 1001,4 hPa 0,2 l/m 23,7 km/h (4 Bft) W 0,00 h 0,076 mm 0,0 UV-I 0 W/m 3,6 C -1,0 C 36,5 km/h (5 Bft) 97,40 %
24.02.2017 05:00 6,4 C 79 % 1002,8 hPa 0,0 l/m 23,8 km/h (4 Bft) W-SW 0,00 h 0,051 mm 0,0 UV-I 0 W/m 3,0 C -2,6 C 34,6 km/h (5 Bft) 96,48 %
24.02.2017 06:00 6,0 C 83 % 1003,9 hPa 0,0 l/m 20,7 km/h (4 Bft) SW 0,00 h 0,051 mm 0,0 UV-I 5 W/m 3,4 C -2,0 C 30,0 km/h (5 Bft) 97,96 %
24.02.2017 07:00 5,9 C 82 % 1005,2 hPa 0,0 l/m 25,9 km/h (4 Bft) SW 0,00 h 0,025 mm 0,0 UV-I 15 W/m 3,1 C -3,9 C 37,1 km/h (5 Bft) 95,69 %
24.02.2017 08:00 5,8 C 84 % 1006,7 hPa 0,0 l/m 20,0 km/h (4 Bft) SW 0,00 h 0,051 mm 0,0 UV-I 88 W/m 3,2 C -2,1 C 28,5 km/h (4 Bft) 96,97 %
24.02.2017 09:00 7,1 C 67 % 1007,7 hPa 0,0 l/m 18,6 km/h (3 Bft) W-SW 0,35 h 0,076 mm 0,3 UV-I 176 W/m 1,4 C 0,2 C 27,7 km/h (4 Bft) 95,11 %
24.02.2017 10:00 7,0 C 73 % 1008,5 hPa 0,0 l/m 15,8 km/h (3 Bft) W-SW 0,00 h 0,127 mm 0,6 UV-I 165 W/m 2,4 C 1,3 C 22,4 km/h (4 Bft) 95,97 %
24.02.2017 11:00 7,0 C 74 % 1008,8 hPa 0,0 l/m 18,9 km/h (3 Bft) SW 0,28 h 0,102 mm 0,8 UV-I 216 W/m 2,7 C -0,0 C 26,1 km/h (4 Bft) 94,72 %
24.02.2017 12:00 7,5 C 63 % 1008,9 hPa 0,0 l/m 19,9 km/h (4 Bft) W 0,07 h 0,127 mm 0,8 UV-I 236 W/m 0,9 C 0,3 C 28,2 km/h (4 Bft) 97,86 %
24.02.2017 13:00 7,1 C 67 % 1009,1 hPa 0,0 l/m 19,2 km/h (3 Bft) W-SW 0,37 h 0,178 mm 0,9 UV-I 289 W/m 1,3 C 0,1 C 27,2 km/h (4 Bft) 96,84 %
24.02.2017 14:00 7,0 C 65 % 1009,2 hPa 0,0 l/m 21,1 km/h (4 Bft) W-SW 0,18 h 0,177 mm 0,6 UV-I 169 W/m 0,7 C -0,8 C 30,2 km/h (5 Bft) 96,88 %
24.02.2017 15:00 5,9 C 78 % 1009,3 hPa 0,0 l/m 20,4 km/h (4 Bft) SW 0,75 h 0,153 mm 0,5 UV-I 228 W/m 2,3 C -2,1 C 28,7 km/h (4 Bft) 97,22 %
24.02.2017 16:00 5,3 C 81 % 1010,1 hPa 0,0 l/m 19,1 km/h (3 Bft) SW 0,38 h 0,127 mm 0,0 UV-I 88 W/m 2,2 C -2,4 C 27,1 km/h (4 Bft) 96,28 %
24.02.2017 17:00 4,6 C 81 % 1011,1 hPa 0,0 l/m 20,8 km/h (4 Bft) W-SW 0,40 h 0,076 mm 0,0 UV-I 28 W/m 1,7 C -3,8 C 29,5 km/h (5 Bft) 96,17 %
24.02.2017 18:00 4,1 C 82 % 1012,6 hPa 0,0 l/m 17,8 km/h (3 Bft) SW 0,00 h 0,051 mm 0,0 UV-I 0 W/m 1,3 C -3,3 C 25,2 km/h (4 Bft) 95,59 %
24.02.2017 19:00 3,6 C 83 % 1014,1 hPa 0,0 l/m 14,2 km/h (3 Bft) SW 0,00 h 0,025 mm 0,0 UV-I 0 W/m 0,9 C -2,2 C 20,6 km/h (4 Bft) 96,17 %
24.02.2017 20:00 2,9 C 86 % 1015,2 hPa 0,0 l/m 9,5 km/h (2 Bft) SW 0,00 h 0,026 mm 0,0 UV-I 0 W/m 0,7 C 0,3 C 14,2 km/h (3 Bft) 94,99 %
24.02.2017 21:00 2,9 C 86 % 1016,7 hPa 0,0 l/m 11,0 km/h (2 Bft) SW 0,00 h 0,025 mm 0,0 UV-I 0 W/m 0,8 C -0,9 C 17,4 km/h (3 Bft) 94,66 %
24.02.2017 22:00 2,3 C 87 % 1017,6 hPa 0,0 l/m 10,7 km/h (2 Bft) SW 0,00 h 0,025 mm 0,0 UV-I 0 W/m 0,4 C -1,4 C 15,5 km/h (3 Bft) 97,07 %
24.02.2017 23:00 1,6 C 88 % 1018,3 hPa 0,0 l/m 10,3 km/h (2 Bft) SW 0,00 h 0,026 mm 0,0 UV-I 0 W/m -0,1 C -1,8 C 15,2 km/h (3 Bft) 96,07 %
25.02.2017 00:00 1,2 C 90 % 1019,0 hPa 0,0 l/m 8,2 km/h (2 Bft) SW 0,00 h 0,000 mm 0,0 UV-I 0 W/m -0,2 C -0,5 C 12,3 km/h (3 Bft) 96,61 %
25.02.2017 01:00 1,1 C 90 % 1019,6 hPa 0,0 l/m 7,6 km/h (2 Bft) SW 0,00 h 0,000 mm 0,0 UV-I 0 W/m -0,5 C -0,2 C 11,2 km/h (2 Bft) 96,00 %
25.02.2017 02:00 0,6 C 92 % 1019,9 hPa 0,0 l/m 8,2 km/h (2 Bft) SW 0,00 h 0,000 mm 0,0 UV-I 0 W/m -0,6 C -1,2 C 11,7 km/h (2 Bft) 97,71 %
25.02.2017 03:00 0,5 C 93 % 1020,3 hPa 0,0 l/m 8,3 km/h (2 Bft) SW 0,00 h 0,000 mm 0,0 UV-I 0 W/m -0,5 C -1,3 C 12,2 km/h (2 Bft) 97,62 %
25.02.2017 04:00 0,6 C 92 % 1020,9 hPa 0,0 l/m 8,6 km/h (2 Bft) SW 0,00 h 0,000 mm 0,0 UV-I 0 W/m -0,6 C -1,6 C 12,8 km/h (3 Bft) 95,55 %
25.02.2017 05:00 0,2 C 93 % 1021,5 hPa 0,0 l/m 8,1 km/h (2 Bft) SW 0,00 h 0,000 mm 0,0 UV-I 0 W/m -0,8 C -1,5 C 12,0 km/h (2 Bft) 98,62 %
25.02.2017 06:00 0,3 C 93 % 1022,0 hPa 0,0 l/m 7,1 km/h (2 Bft) W-SW 0,00 h 0,000 mm 0,0 UV-I 6 W/m -0,8 C -0,7 C 11,1 km/h (2 Bft) 96,48 %
25.02.2017 07:00 0,1 C 93 % 1022,9 hPa 0,0 l/m 3,3 km/h (1 Bft) W 0,33 h 0,000 mm 0,0 UV-I 51 W/m -0,9 C 0,1 C 5,4 km/h (1 Bft) 97,47 %
25.02.2017 08:00 1,5 C 90 % 1023,5 hPa 0,0 l/m 4,9 km/h (1 Bft) W-SW 1,00 h 0,025 mm 0,0 UV-I 225 W/m 0,1 C 1,4 C 8,1 km/h (2 Bft) 96,91 %
25.02.2017 09:00 3,2 C 84 % 1024,1 hPa 0,0 l/m 7,3 km/h (2 Bft) W-SW 0,97 h 0,077 mm 0,6 UV-I 352 W/m 0,8 C 2,2 C 12,0 km/h (2 Bft) 96,33 %
25.02.2017 10:00 4,5 C 78 % 1024,5 hPa 0,0 l/m 7,5 km/h (2 Bft) W-SW 0,93 h 0,127 mm 1,1 UV-I 464 W/m 1,1 C 3,2 C 12,5 km/h (3 Bft) 96,46 %
25.02.2017 11:00 5,7 C 70 % 1024,6 hPa 0,0 l/m 6,7 km/h (2 Bft) W-SW 0,97 h 0,203 mm 1,4 UV-I 489 W/m 0,6 C 4,8 C 11,9 km/h (2 Bft) 96,14 %
25.02.2017 12:00 6,6 C 63 % 1024,2 hPa 0,0 l/m 7,2 km/h (2 Bft) W 0,90 h 0,203 mm 1,5 UV-I 531 W/m 0,1 C 5,6 C 12,5 km/h (3 Bft) 94,92 %
25.02.2017 13:00 7,5 C 57 % 1023,6 hPa 0,0 l/m 6,3 km/h (2 Bft) W 1,00 h 0,254 mm 1,4 UV-I 564 W/m -0,5 C 6,8 C 12,3 km/h (3 Bft) 96,64 %
25.02.2017 14:00 7,8 C 55 % 1023,0 hPa 0,0 l/m 5,3 km/h (1 Bft) W-SW 0,93 h 0,254 mm 1,0 UV-I 427 W/m -0,8 C 7,2 C 10,6 km/h (2 Bft) 97,88 %
25.02.2017 15:00 7,6 C 53 % 1022,3 hPa 0,0 l/m 3,6 km/h (1 Bft) SW 1,00 h 0,203 mm 0,6 UV-I 276 W/m -1,4 C 7,5 C 7,4 km/h (2 Bft) 96,05 %
25.02.2017 16:00 7,1 C 54 % 1021,7 hPa 0,0 l/m 1,0 km/h (0 Bft) W-NW 0,83 h 0,127 mm 0,0 UV-I 132 W/m -1,5 C 7,1 C 2,6 km/h (1 Bft) 96,08 %
25.02.2017 17:00 5,8 C 64 % 1021,5 hPa 0,0 l/m 5,4 km/h (1 Bft) N-NO 0,53 h 0,076 mm 0,0 UV-I 33 W/m -0,5 C 5,4 C 7,9 km/h (2 Bft) 96,77 %
25.02.2017 18:00 3,9 C 71 % 1021,5 hPa 0,0 l/m 3,4 km/h (1 Bft) O-NO 0,00 h 0,026 mm 0,0 UV-I 0 W/m -0,9 C 3,9 C 4,8 km/h (1 Bft) 97,53 %
25.02.2017 19:00 2,6 C 75 % 1021,6 hPa 0,0 l/m 1,8 km/h (1 Bft) O-NO 0,00 h 0,025 mm 0,0 UV-I 0 W/m -1,4 C 2,6 C 2,7 km/h (1 Bft) 96,40 %
25.02.2017 20:00 2,2 C 75 % 1021,6 hPa 0,0 l/m 2,8 km/h (1 Bft) O 0,00 h 0,000 mm 0,0 UV-I 0 W/m -1,7 C 2,2 C 4,2 km/h (1 Bft) 97,15 %
25.02.2017 21:00 0,7 C 83 % 1021,7 hPa 0,0 l/m 2,1 km/h (1 Bft) O 0,00 h 0,000 mm 0,0 UV-I 0 W/m -1,9 C 0,7 C 3,6 km/h (1 Bft) 95,15 %
25.02.2017 22:00 -0,1 C 86 % 1021,6 hPa 0,0 l/m 1,1 km/h (1 Bft) O 0,00 h 0,000 mm 0,0 UV-I 0 W/m -2,1 C -0,1 C 2,3 km/h (1 Bft) 96,04 %
25.02.2017 23:00 -0,5 C 89 % 1020,8 hPa 0,0 l/m 1,0 km/h (0 Bft) O 0,00 h 0,000 mm 0,0 UV-I 0 W/m -2,1 C -0,5 C 1,9 km/h (1 Bft) 97,30 %
26.02.2017 00:00 -0,9 C 90 % 1020,3 hPa 0,0 l/m 0,4 km/h (0 Bft) O 0,00 h 0,000 mm 0,0 UV-I 0 W/m -2,3 C -0,9 C 1,2 km/h (1 Bft) 96,66 %
26.02.2017 01:00 -1,3 C 91 % 1019,7 hPa 0,0 l/m 1,5 km/h (1 Bft) SO 0,00 h 0,000 mm 0,0 UV-I 0 W/m -2,6 C -1,3 C 3,0 km/h (1 Bft) 97,66 %
26.02.2017 02:00 -1,3 C 92 % 1018,9 hPa 0,0 l/m 0,6 km/h (0 Bft) SO 0,00 h 0,000 mm 0,0 UV-I 0 W/m -2,5 C -1,3 C 1,8 km/h (1 Bft) 96,38 %
26.02.2017 03:00 -1,5 C 92 % 1018,2 hPa 0,0 l/m 0,3 km/h (0 Bft) SO 0,00 h 0,000 mm 0,0 UV-I 0 W/m -2,6 C -1,5 C 0,9 km/h (0 Bft) 97,20 %
26.02.2017 04:00 -1,5 C 93 % 1017,8 hPa 0,0 l/m 0,1 km/h (0 Bft) SO 0,00 h 0,000 mm 0,0 UV-I 0 W/m -2,5 C -1,5 C 0,5 km/h (0 Bft) 95,76 %
26.02.2017 05:00 -1,4 C 93 % 1017,9 hPa 0,0 l/m 0,9 km/h (0 Bft) SO 0,00 h 0,000 mm 0,0 UV-I 0 W/m -2,4 C -1,4 C 1,9 km/h (1 Bft) 97,17 %
26.02.2017 06:00 -1,0 C 93 % 1018,1 hPa 0,0 l/m 2,7 km/h (1 Bft) S-SW 0,00 h 0,000 mm 0,0 UV-I 7 W/m -1,9 C -1,0 C 4,6 km/h (1 Bft) 96,11 %
26.02.2017 07:00 -0,5 C 92 % 1018,4 hPa 0,0 l/m 2,0 km/h (1 Bft) S 0,97 h 0,000 mm 0,0 UV-I 68 W/m -1,6 C -0,5 C 3,9 km/h (1 Bft) 97,42 %
26.02.2017 08:00 1,1 C 87 % 1018,7 hPa 0,0 l/m 4,0 km/h (1 Bft) S-SW 0,90 h 0,025 mm 0,0 UV-I 180 W/m -0,8 C 1,0 C 6,7 km/h (2 Bft) 94,72 %
26.02.2017 09:00 2,6 C 80 % 1018,9 hPa 0,0 l/m 4,6 km/h (1 Bft) SW 1,00 h 0,077 mm 0,6 UV-I 236 W/m -0,5 C 2,6 C 7,4 km/h (2 Bft) 97,48 %
26.02.2017 10:00 3,9 C 74 % 1019,2 hPa 0,0 l/m 3,7 km/h (1 Bft) W-SW 0,03 h 0,101 mm 0,8 UV-I 227 W/m -0,3 C 3,9 C 6,4 km/h (2 Bft) 96,53 %
26.02.2017 11:00 5,1 C 70 % 1019,5 hPa 0,0 l/m 3,2 km/h (1 Bft) W 0,17 h 0,102 mm 1,1 UV-I 270 W/m 0,1 C 5,0 C 5,7 km/h (1 Bft) 96,35 %
26.02.2017 12:00 6,1 C 68 % 1018,8 hPa 0,0 l/m 1,7 km/h (1 Bft) SW 0,00 h 0,127 mm 1,0 UV-I 239 W/m 0,7 C 6,1 C 3,6 km/h (1 Bft) 97,18 %
26.02.2017 13:00 7,3 C 66 % 1017,8 hPa 0,0 l/m 1,4 km/h (1 Bft) N-NO 0,23 h 0,101 mm 1,0 UV-I 261 W/m 1,4 C 7,3 C 3,6 km/h (1 Bft) 98,20 %
26.02.2017 14:00 7,3 C 68 % 1017,4 hPa 0,0 l/m 4,7 km/h (1 Bft) N-NO 0,00 h 0,127 mm 0,7 UV-I 200 W/m 1,8 C 7,2 C 7,6 km/h (2 Bft) 96,64 %
26.02.2017 15:00 7,3 C 69 % 1017,2 hPa 0,0 l/m 4,8 km/h (1 Bft) NO 0,00 h 0,102 mm 0,5 UV-I 120 W/m 2,0 C 7,2 C 7,2 km/h (2 Bft) 96,80 %
26.02.2017 16:00 6,9 C 71 % 1016,9 hPa 0,0 l/m 4,1 km/h (1 Bft) O 0,00 h 0,076 mm 0,0 UV-I 49 W/m 2,0 C 6,9 C 6,2 km/h (2 Bft) 95,69 %
26.02.2017 17:00 6,6 C 73 % 1016,9 hPa 0,0 l/m 4,3 km/h (1 Bft) SO 0,00 h 0,026 mm 0,0 UV-I 12 W/m 2,1 C 6,5 C 7,8 km/h (2 Bft) 98,00 %
26.02.2017 18:00 6,1 C 76 % 1016,9 hPa 0,0 l/m 3,0 km/h (1 Bft) O-SO 0,00 h 0,025 mm 0,0 UV-I 0 W/m 2,2 C 6,1 C 5,9 km/h (2 Bft) 96,87 %
26.02.2017 19:00 5,5 C 80 % 1016,8 hPa 0,0 l/m 2,1 km/h (1 Bft) O 0,00 h 0,000 mm 0,0 UV-I 0 W/m 2,2 C 5,5 C 4,0 km/h (1 Bft) 98,54 %
26.02.2017 20:00 4,5 C 84 % 1016,5 hPa 0,0 l/m 1,0 km/h (0 Bft) O 0,00 h 0,000 mm 0,0 UV-I 0 W/m 2,1 C 4,5 C 1,9 km/h (1 Bft) 97,48 %
26.02.2017 21:00 3,3 C 87 % 1016,4 hPa 0,0 l/m 0,7 km/h (0 Bft) O 0,00 h 0,000 mm 0,0 UV-I 0 W/m 1,4 C 3,3 C 1,2 km/h (1 Bft) 97,47 %
26.02.2017 22:00 2,0 C 90 % 1016,1 hPa 0,0 l/m 1,8 km/h (1 Bft) O 0,00 h 0,000 mm 0,0 UV-I 0 W/m 0,6 C 2,0 C 3,3 km/h (1 Bft) 97,31 %
26.02.2017 23:00 1,2 C 92 % 1016,0 hPa 0,0 l/m 0,2 km/h (0 Bft) N 0,00 h 0,000 mm 0,0 UV-I 0 W/m -0,0 C 1,2 C 0,6 km/h (0 Bft) 96,53 %
Min-Datum _ 26.02.17 23.02.17 23.02.17 - 20.02.17 - - - - - 26.02.17 24.02.17 20.02.17 24.02.17
_ Min-Zeit 03:42 23:08 20:34 - 00:22 - - - - - 01:50 17:20 00:22 04:05
Minimum _ -1,7 C 42 % 997,3 hPa - 0,0 km/h (0 Bft) - - - - - -2,9 C -6,9 C 0,0 km/h (0 Bft) 50,00 %
Max-Datum _ 23.02.17 20.02.17 25.02.17 21.02.17 24.02.17 - 23.02.17 23.02.17 23.02.17 20.02.17 23.02.17 23.02.17 24.02.17 20.02.17
_ Max-Zeit 15:02 02:32 10:54 22:06 04:41 - 15:43 14:00 12:30 12:52 15:58 15:04 04:40 00:04
Maximum _ 16,6 C 98 % 1024,7 hPa 2,8 l/m 38,5 km/h
W (5 Bft)
- 0,05 h 0,305 mm 1,9 UV-I 709 W/m 9,3 C 16,6 C 62,8 km/h
W-SW (8 Bft)
100,00 %
Durchschnitt _ 6,7 C 80 % 1014,2 hPa #18,4 l/m 11,1 km/h (2 Bft) W-SW #24:43 h #9,524 mm 0,8 UV-I 162 W/m 3,2 C 3,3 C 16,9 km/h (3 Bft) 96,73 %